sensor_id;sensor_type;location;lat;lon;timestamp;P1;durP1;ratioP1;P2;durP2;ratioP2
38037;SDS011;23843;51.320;12.340;2022-09-09T04:32:08;0.20;;;0.20;;
38037;SDS011;23843;51.320;12.340;2022-09-09T04:34:34;0.47;;;0.47;;
38037;SDS011;23843;51.320;12.340;2022-09-09T04:36:59;0.13;;;0.10;;
38037;SDS011;23843;51.320;12.340;2022-09-09T04:39:24;0.10;;;0.10;;
38037;SDS011;23843;51.320;12.340;2022-09-09T04:41:50;0.10;;;0.10;;
38037;SDS011;23843;51.320;12.340;2022-09-09T04:44:15;0.10;;;0.10;;
38037;SDS011;23843;51.320;12.340;2022-09-09T04:46:40;0.03;;;0.03;;
38037;SDS011;23843;51.320;12.340;2022-09-09T04:49:07;0.17;;;0.17;;
38037;SDS011;23843;51.320;12.340;2022-09-09T04:51:33;0.10;;;0.10;;
38037;SDS011;23843;51.320;12.340;2022-09-09T04:53:58;0.17;;;0.17;;
38037;SDS011;23843;51.320;12.340;2022-09-09T04:56:23;0.07;;;0.07;;
38037;SDS011;23843;51.320;12.340;2022-09-09T04:58:49;0.17;;;0.17;;
38037;SDS011;23843;51.320;12.340;2022-09-09T05:01:15;0.00;;;0.00;;
38037;SDS011;23843;51.320;12.340;2022-09-09T05:03:41;0.10;;;0.10;;
38037;SDS011;23843;51.320;12.340;2022-09-09T05:06:09;0.10;;;0.10;;
38037;SDS011;23843;51.320;12.340;2022-09-09T05:08:36;0.10;;;0.10;;
38037;SDS011;23843;51.320;12.340;2022-09-09T05:11:02;0.10;;;0.10;;
38037;SDS011;23843;51.320;12.340;2022-09-09T05:13:28;0.10;;;0.10;;
38037;SDS011;23843;51.320;12.340;2022-09-09T05:15:53;0.10;;;0.10;;
38037;SDS011;23843;51.320;12.340;2022-09-09T05:18:19;0.20;;;0.20;;
38037;SDS011;23843;51.320;12.340;2022-09-09T05:20:45;0.10;;;0.10;;
38037;SDS011;23843;51.320;12.340;2022-09-09T05:23:14;0.10;;;0.10;;
38037;SDS011;23843;51.320;12.340;2022-09-09T05:25:40;0.23;;;0.10;;
38037;SDS011;23843;51.320;12.340;2022-09-09T05:28:05;0.10;;;0.10;;
38037;SDS011;23843;51.320;12.340;2022-09-09T05:30:30;0.10;;;0.10;;
38037;SDS011;23843;51.320;12.340;2022-09-09T05:32:56;0.00;;;0.00;;
38037;SDS011;23843;51.320;12.340;2022-09-09T05:35:21;0.10;;;0.10;;
38037;SDS011;23843;51.320;12.340;2022-09-09T05:37:47;0.30;;;0.30;;
38037;SDS011;23843;51.320;12.340;2022-09-09T05:40:14;0.20;;;0.20;;
38037;SDS011;23843;51.320;12.340;2022-09-09T05:42:39;0.10;;;0.10;;
38037;SDS011;23843;51.320;12.340;2022-09-09T05:45:05;0.10;;;0.10;;
38037;SDS011;23843;51.320;12.340;2022-09-09T05:47:31;0.10;;;0.10;;
38037;SDS011;23843;51.320;12.340;2022-09-09T05:49:57;0.00;;;0.00;;
38037;SDS011;23843;51.320;12.340;2022-09-09T05:52:22;0.10;;;0.10;;
38037;SDS011;23843;51.320;12.340;2022-09-09T05:54:47;0.10;;;0.10;;
38037;SDS011;23843;51.320;12.340;2022-09-09T05:57:14;0.10;;;0.10;;
38037;SDS011;23843;51.320;12.340;2022-09-09T05:59:39;1.93;;;0.20;;
38037;SDS011;23843;51.320;12.340;2022-09-09T06:02:05;0.10;;;0.10;;
38037;SDS011;23843;51.320;12.340;2022-09-09T06:04:30;0.87;;;0.10;;
38037;SDS011;23843;51.320;12.340;2022-09-09T06:06:56;0.20;;;0.10;;
38037;SDS011;23843;51.320;12.340;2022-09-09T06:09:21;0.10;;;0.10;;
38037;SDS011;23843;51.320;12.340;2022-09-09T06:11:47;0.13;;;0.13;;
38037;SDS011;23843;51.320;12.340;2022-09-09T06:14:13;0.03;;;0.03;;
38037;SDS011;23843;51.320;12.340;2022-09-09T06:16:39;0.10;;;0.10;;
38037;SDS011;23843;51.320;12.340;2022-09-09T06:19:04;1.03;;;0.20;;
38037;SDS011;23843;51.320;12.340;2022-09-09T06:21:30;0.10;;;0.10;;
38037;SDS011;23843;51.320;12.340;2022-09-09T06:23:57;0.20;;;0.20;;
38037;SDS011;23843;51.320;12.340;2022-09-09T06:26:23;0.10;;;0.10;;
38037;SDS011;23843;51.320;12.340;2022-09-09T06:28:50;0.70;;;0.70;;
38037;SDS011;23843;51.320;12.340;2022-09-09T06:31:19;0.10;;;0.10;;
38037;SDS011;23843;51.320;12.340;2022-09-09T06:33:46;0.10;;;0.10;;
38037;SDS011;23843;51.320;12.340;2022-09-09T06:36:13;0.50;;;0.50;;
38037;SDS011;23843;51.320;12.340;2022-09-09T06:38:41;0.10;;;0.10;;
38037;SDS011;23843;51.320;12.340;2022-09-09T06:41:07;0.23;;;0.10;;
38037;SDS011;23843;51.320;12.340;2022-09-09T06:43:34;0.10;;;0.10;;
38037;SDS011;23843;51.320;12.340;2022-09-09T06:46:00;0.10;;;0.10;;
38037;SDS011;23843;51.320;12.340;2022-09-09T06:48:28;0.20;;;0.20;;
38037;SDS011;23843;51.320;12.340;2022-09-09T06:51:02;0.20;;;0.20;;
38037;SDS011;23843;51.320;12.340;2022-09-09T06:53:29;0.20;;;0.20;;
38037;SDS011;23843;51.320;12.340;2022-09-09T06:55:54;0.10;;;0.10;;
38037;SDS011;23843;51.320;12.340;2022-09-09T06:58:20;0.20;;;0.20;;
38037;SDS011;23843;51.320;12.340;2022-09-09T07:00:45;2.42;;;0.20;;
38037;SDS011;23843;51.320;12.340;2022-09-09T07:03:10;0.20;;;0.20;;
38037;SDS011;23843;51.320;12.340;2022-09-09T07:05:38;0.43;;;0.30;;
38037;SDS011;23843;51.320;12.340;2022-09-09T07:08:03;0.20;;;0.20;;
38037;SDS011;23843;51.320;12.340;2022-09-09T07:10:29;0.17;;;0.17;;
38037;SDS011;23843;51.320;12.340;2022-09-09T07:12:54;0.10;;;0.10;;
38037;SDS011;23843;51.320;12.340;2022-09-09T07:15:20;0.28;;;0.20;;
38037;SDS011;23843;51.320;12.340;2022-09-09T07:17:45;0.52;;;0.30;;
38037;SDS011;23843;51.320;12.340;2022-09-09T07:20:10;0.77;;;0.38;;
38037;SDS011;23843;51.320;12.340;2022-09-09T07:22:37;0.40;;;0.40;;
38037;SDS011;23843;51.320;12.340;2022-09-09T07:25:03;0.20;;;0.20;;
38037;SDS011;23843;51.320;12.340;2022-09-09T07:27:29;0.60;;;0.30;;
38037;SDS011;23843;51.320;12.340;2022-09-09T07:29:55;0.80;;;0.80;;
38037;SDS011;23843;51.320;12.340;2022-09-09T07:32:20;0.40;;;0.30;;
38037;SDS011;23843;51.320;12.340;2022-09-09T07:34:45;0.40;;;0.40;;
38037;SDS011;23843;51.320;12.340;2022-09-09T07:37:11;0.40;;;0.30;;
38037;SDS011;23843;51.320;12.340;2022-09-09T07:39:38;0.30;;;0.30;;
38037;SDS011;23843;51.320;12.340;2022-09-09T07:42:03;0.55;;;0.55;;
38037;SDS011;23843;51.320;12.340;2022-09-09T07:44:29;0.32;;;0.30;;
38037;SDS011;23843;51.320;12.340;2022-09-09T07:46:54;0.98;;;0.40;;
38037;SDS011;23843;51.320;12.340;2022-09-09T07:49:20;0.30;;;0.30;;
38037;SDS011;23843;51.320;12.340;2022-09-09T07:51:46;0.32;;;0.20;;
38037;SDS011;23843;51.320;12.340;2022-09-09T07:54:13;0.20;;;0.20;;
38037;SDS011;23843;51.320;12.340;2022-09-09T07:56:40;0.38;;;0.30;;
38037;SDS011;23843;51.320;12.340;2022-09-09T07:59:07;0.40;;;0.40;;
38037;SDS011;23843;51.320;12.340;2022-09-09T08:01:33;0.57;;;0.57;;
38037;SDS011;23843;51.320;12.340;2022-09-09T08:04:01;0.55;;;0.55;;
38037;SDS011;23843;51.320;12.340;2022-09-09T08:06:27;0.50;;;0.50;;
38037;SDS011;23843;51.320;12.340;2022-09-09T08:08:55;0.40;;;0.40;;
38037;SDS011;23843;51.320;12.340;2022-09-09T08:11:21;0.80;;;0.80;;
38037;SDS011;23843;51.320;12.340;2022-09-09T08:13:50;0.77;;;0.77;;
38037;SDS011;23843;51.320;12.340;2022-09-09T08:16:17;0.90;;;0.68;;
38037;SDS011;23843;51.320;12.340;2022-09-09T08:18:44;1.08;;;0.98;;
38037;SDS011;23843;51.320;12.340;2022-09-09T08:21:10;1.00;;;0.90;;
38037;SDS011;23843;51.320;12.340;2022-09-09T08:23:37;0.50;;;0.50;;
38037;SDS011;23843;51.320;12.340;2022-09-09T08:26:03;1.48;;;0.70;;
38037;SDS011;23843;51.320;12.340;2022-09-09T08:28:29;0.57;;;0.55;;
38037;SDS011;23843;51.320;12.340;2022-09-09T08:30:56;0.30;;;0.30;;
38037;SDS011;23843;51.320;12.340;2022-09-09T08:33:30;0.20;;;0.20;;
38037;SDS011;23843;51.320;12.340;2022-09-09T08:35:55;0.70;;;0.50;;
38037;SDS011;23843;51.320;12.340;2022-09-09T08:38:21;0.50;;;0.50;;
38037;SDS011;23843;51.320;12.340;2022-09-09T08:40:46;0.40;;;0.40;;
38037;SDS011;23843;51.320;12.340;2022-09-09T08:43:17;0.68;;;0.50;;
38037;SDS011;23843;51.320;12.340;2022-09-09T08:45:48;1.33;;;0.73;;
38037;SDS011;23843;51.320;12.340;2022-09-09T08:48:27;0.68;;;0.60;;
38037;SDS011;23843;51.320;12.340;2022-09-09T08:51:03;0.93;;;0.82;;
38037;SDS011;23843;51.320;12.340;2022-09-09T08:53:30;0.65;;;0.65;;
38037;SDS011;23843;51.320;12.340;2022-09-09T08:56:08;0.70;;;0.70;;
38037;SDS011;23843;51.320;12.340;2022-09-09T08:58:38;0.95;;;0.80;;
38037;SDS011;23843;51.320;12.340;2022-09-09T09:01:14;1.13;;;1.00;;
38037;SDS011;23843;51.320;12.340;2022-09-09T09:03:55;0.80;;;0.80;;
38037;SDS011;23843;51.320;12.340;2022-09-09T09:06:27;1.42;;;0.98;;
38037;SDS011;23843;51.320;12.340;2022-09-09T09:09:05;1.10;;;1.00;;
38037;SDS011;23843;51.320;12.340;2022-09-09T09:11:36;1.00;;;0.90;;
38037;SDS011;23843;51.320;12.340;2022-09-09T09:14:03;1.00;;;0.98;;
38037;SDS011;23843;51.320;12.340;2022-09-09T09:16:36;1.42;;;0.93;;
38037;SDS011;23843;51.320;12.340;2022-09-09T09:19:09;0.98;;;0.80;;
38037;SDS011;23843;51.320;12.340;2022-09-09T09:21:39;1.15;;;1.05;;
38037;SDS011;23843;51.320;12.340;2022-09-09T09:24:10;0.80;;;0.80;;
38037;SDS011;23843;51.320;12.340;2022-09-09T09:26:41;0.50;;;0.50;;
38037;SDS011;23843;51.320;12.340;2022-09-09T09:29:08;1.02;;;0.75;;
38037;SDS011;23843;51.320;12.340;2022-09-09T09:31:35;1.05;;;0.50;;
38037;SDS011;23843;51.320;12.340;2022-09-09T09:34:01;0.50;;;0.50;;
38037;SDS011;23843;51.320;12.340;2022-09-09T09:36:34;1.10;;;0.50;;
38037;SDS011;23843;51.320;12.340;2022-09-09T09:39:04;0.73;;;0.60;;
38037;SDS011;23843;51.320;12.340;2022-09-09T09:41:30;0.70;;;0.50;;
38037;SDS011;23843;51.320;12.340;2022-09-09T09:43:59;0.38;;;0.38;;
38037;SDS011;23843;51.320;12.340;2022-09-09T09:46:24;0.60;;;0.60;;
38037;SDS011;23843;51.320;12.340;2022-09-09T09:48:56;0.85;;;0.38;;
38037;SDS011;23843;51.320;12.340;2022-09-09T09:51:22;1.48;;;0.70;;
38037;SDS011;23843;51.320;12.340;2022-09-09T09:53:50;0.75;;;0.75;;
38037;SDS011;23843;51.320;12.340;2022-09-09T09:56:16;0.52;;;0.30;;
38037;SDS011;23843;51.320;12.340;2022-09-09T09:58:48;0.40;;;0.30;;
38037;SDS011;23843;51.320;12.340;2022-09-09T10:01:18;0.65;;;0.40;;
38037;SDS011;23843;51.320;12.340;2022-09-09T10:03:50;0.30;;;0.30;;
38037;SDS011;23843;51.320;12.340;2022-09-09T10:06:16;0.30;;;0.30;;
38037;SDS011;23843;51.320;12.340;2022-09-09T10:08:44;0.60;;;0.60;;
38037;SDS011;23843;51.320;12.340;2022-09-09T10:11:21;0.63;;;0.50;;
38037;SDS011;23843;51.320;12.340;2022-09-09T10:13:57;0.40;;;0.40;;
38037;SDS011;23843;51.320;12.340;2022-09-09T10:16:33;0.20;;;0.20;;
38037;SDS011;23843;51.320;12.340;2022-09-09T10:19:12;0.20;;;0.20;;
38037;SDS011;23843;51.320;12.340;2022-09-09T10:24:39;1.17;;;0.70;;
38037;SDS011;23843;51.320;12.340;2022-09-09T10:27:17;1.00;;;0.40;;
38037;SDS011;23843;51.320;12.340;2022-09-09T10:29:55;1.27;;;0.70;;
38037;SDS011;23843;51.320;12.340;2022-09-09T10:32:33;0.40;;;0.40;;
38037;SDS011;23843;51.320;12.340;2022-09-09T10:35:02;1.15;;;0.60;;
38037;SDS011;23843;51.320;12.340;2022-09-09T10:37:37;0.40;;;0.40;;
38037;SDS011;23843;51.320;12.340;2022-09-09T10:40:13;0.95;;;0.57;;
38037;SDS011;23843;51.320;12.340;2022-09-09T10:42:49;0.68;;;0.63;;
38037;SDS011;23843;51.320;12.340;2022-09-09T10:45:16;0.60;;;0.30;;
38037;SDS011;23843;51.320;12.340;2022-09-09T10:47:46;0.32;;;0.30;;
38037;SDS011;23843;51.320;12.340;2022-09-09T10:50:28;0.95;;;0.90;;
38037;SDS011;23843;51.320;12.340;2022-09-09T10:53:08;0.32;;;0.32;;
38037;SDS011;23843;51.320;12.340;2022-09-09T10:55:42;0.70;;;0.50;;
38037;SDS011;23843;51.320;12.340;2022-09-09T10:58:12;0.32;;;0.32;;
38037;SDS011;23843;51.320;12.340;2022-09-09T11:00:44;0.50;;;0.40;;
38037;SDS011;23843;51.320;12.340;2022-09-09T11:03:16;0.57;;;0.57;;
38037;SDS011;23843;51.320;12.340;2022-09-09T11:05:45;1.35;;;0.70;;
38037;SDS011;23843;51.320;12.340;2022-09-09T11:08:15;0.43;;;0.30;;
38037;SDS011;23843;51.320;12.340;2022-09-09T11:10:45;0.32;;;0.32;;
38037;SDS011;23843;51.320;12.340;2022-09-09T11:13:18;0.77;;;0.30;;
38037;SDS011;23843;51.320;12.340;2022-09-09T11:15:49;0.40;;;0.40;;
38037;SDS011;23843;51.320;12.340;2022-09-09T11:18:17;0.40;;;0.40;;
38037;SDS011;23843;51.320;12.340;2022-09-09T11:20:45;0.52;;;0.40;;
38037;SDS011;23843;51.320;12.340;2022-09-09T11:23:15;0.20;;;0.20;;
38037;SDS011;23843;51.320;12.340;2022-09-09T11:25:44;0.40;;;0.40;;
38037;SDS011;23843;51.320;12.340;2022-09-09T11:28:31;1.02;;;0.52;;
38037;SDS011;23843;51.320;12.340;2022-09-09T11:31:13;0.75;;;0.60;;
38037;SDS011;23843;51.320;12.340;2022-09-09T11:33:53;1.85;;;0.57;;
38037;SDS011;23843;51.320;12.340;2022-09-09T11:36:42;1.25;;;0.70;;
38037;SDS011;23843;51.320;12.340;2022-09-09T11:42:25;1.45;;;0.68;;
38037;SDS011;23843;51.320;12.340;2022-09-09T11:44:52;0.70;;;0.50;;
38037;SDS011;23843;51.320;12.340;2022-09-09T11:47:22;0.98;;;0.60;;
38037;SDS011;23843;51.320;12.340;2022-09-09T11:49:48;0.73;;;0.43;;
38037;SDS011;23843;51.320;12.340;2022-09-09T11:52:19;0.35;;;0.35;;
38037;SDS011;23843;51.320;12.340;2022-09-09T11:54:47;0.95;;;0.50;;
38037;SDS011;23843;51.320;12.340;2022-09-09T11:57:17;0.98;;;0.50;;
38037;SDS011;23843;51.320;12.340;2022-09-09T11:59:50;1.02;;;0.50;;
38037;SDS011;23843;51.320;12.340;2022-09-09T12:02:18;0.50;;;0.40;;
38037;SDS011;23843;51.320;12.340;2022-09-09T12:04:49;1.02;;;0.60;;
38037;SDS011;23843;51.320;12.340;2022-09-09T12:07:23;2.55;;;0.60;;
38037;SDS011;23843;51.320;12.340;2022-09-09T12:09:55;3.83;;;0.90;;
38037;SDS011;23843;51.320;12.340;2022-09-09T12:12:25;0.77;;;0.57;;
38037;SDS011;23843;51.320;12.340;2022-09-09T12:14:59;0.80;;;0.60;;
38037;SDS011;23843;51.320;12.340;2022-09-09T12:17:47;0.82;;;0.50;;
38037;SDS011;23843;51.320;12.340;2022-09-09T12:20:15;1.73;;;0.80;;
38037;SDS011;23843;51.320;12.340;2022-09-09T12:22:46;1.58;;;0.80;;
38037;SDS011;23843;51.320;12.340;2022-09-09T12:25:30;1.42;;;0.60;;
38037;SDS011;23843;51.320;12.340;2022-09-09T12:28:04;0.38;;;0.38;;
38037;SDS011;23843;51.320;12.340;2022-09-09T12:30:35;1.00;;;0.60;;
38037;SDS011;23843;51.320;12.340;2022-09-09T12:33:12;0.73;;;0.50;;
38037;SDS011;23843;51.320;12.340;2022-09-09T12:35:41;1.45;;;0.60;;
38037;SDS011;23843;51.320;12.340;2022-09-09T12:38:11;1.30;;;1.15;;
38037;SDS011;23843;51.320;12.340;2022-09-09T12:40:40;0.40;;;0.30;;
38037;SDS011;23843;51.320;12.340;2022-09-09T12:43:16;0.80;;;0.40;;
38037;SDS011;23843;51.320;12.340;2022-09-09T12:45:43;2.58;;;0.77;;
38037;SDS011;23843;51.320;12.340;2022-09-09T12:48:09;1.00;;;0.50;;
38037;SDS011;23843;51.320;12.340;2022-09-09T12:50:37;1.70;;;0.50;;
38037;SDS011;23843;51.320;12.340;2022-09-09T12:53:10;1.08;;;0.43;;
38037;SDS011;23843;51.320;12.340;2022-09-09T12:55:38;0.93;;;0.40;;
38037;SDS011;23843;51.320;12.340;2022-09-09T12:58:04;0.60;;;0.32;;
38037;SDS011;23843;51.320;12.340;2022-09-09T13:00:31;0.77;;;0.40;;
38037;SDS011;23843;51.320;12.340;2022-09-09T13:02:58;0.35;;;0.30;;
38037;SDS011;23843;51.320;12.340;2022-09-09T13:05:27;1.08;;;0.30;;
38037;SDS011;23843;51.320;12.340;2022-09-09T13:08:01;1.90;;;0.52;;
38037;SDS011;23843;51.320;12.340;2022-09-09T13:10:28;0.68;;;0.52;;
38037;SDS011;23843;51.320;12.340;2022-09-09T13:12:56;0.70;;;0.50;;
38037;SDS011;23843;51.320;12.340;2022-09-09T13:15:22;0.80;;;0.80;;
38037;SDS011;23843;51.320;12.340;2022-09-09T13:17:51;0.30;;;0.30;;
38037;SDS011;23843;51.320;12.340;2022-09-09T13:20:19;0.20;;;0.20;;
38037;SDS011;23843;51.320;12.340;2022-09-09T13:22:48;0.20;;;0.20;;
38037;SDS011;23843;51.320;12.340;2022-09-09T13:25:18;0.20;;;0.20;;
38037;SDS011;23843;51.320;12.340;2022-09-09T13:27:51;1.65;;;0.32;;
38037;SDS011;23843;51.320;12.340;2022-09-09T13:30:22;0.30;;;0.30;;
38037;SDS011;23843;51.320;12.340;2022-09-09T13:32:59;1.40;;;0.40;;
38037;SDS011;23843;51.320;12.340;2022-09-09T13:35:25;0.20;;;0.20;;
38037;SDS011;23843;51.320;12.340;2022-09-09T13:37:52;0.30;;;0.30;;
38037;SDS011;23843;51.320;12.340;2022-09-09T13:40:18;0.28;;;0.20;;
38037;SDS011;23843;51.320;12.340;2022-09-09T13:42:46;0.30;;;0.30;;
38037;SDS011;23843;51.320;12.340;2022-09-09T13:45:14;0.65;;;0.65;;
38037;SDS011;23843;51.320;12.340;2022-09-09T13:47:42;1.02;;;0.20;;
38037;SDS011;23843;51.320;12.340;2022-09-09T13:50:20;0.10;;;0.10;;
38037;SDS011;23843;51.320;12.340;2022-09-09T13:52:47;0.55;;;0.38;;
38037;SDS011;23843;51.320;12.340;2022-09-09T13:55:14;0.38;;;0.30;;
38037;SDS011;23843;51.320;12.340;2022-09-09T13:57:39;1.00;;;0.65;;
38037;SDS011;23843;51.320;12.340;2022-09-09T14:00:15;0.40;;;0.30;;
38037;SDS011;23843;51.320;12.340;2022-09-09T14:02:41;0.50;;;0.20;;
38037;SDS011;23843;51.320;12.340;2022-09-09T14:05:06;0.52;;;0.20;;
38037;SDS011;23843;51.320;12.340;2022-09-09T14:07:32;0.10;;;0.10;;
38037;SDS011;23843;51.320;12.340;2022-09-09T14:09:57;0.13;;;0.13;;
38037;SDS011;23843;51.320;12.340;2022-09-09T14:12:24;0.17;;;0.17;;
38037;SDS011;23843;51.320;12.340;2022-09-09T14:14:49;0.20;;;0.15;;
38037;SDS011;23843;51.320;12.340;2022-09-09T14:17:15;0.10;;;0.10;;
38037;SDS011;23843;51.320;12.340;2022-09-09T14:19:40;0.55;;;0.55;;
38037;SDS011;23843;51.320;12.340;2022-09-09T14:22:05;0.10;;;0.10;;
38037;SDS011;23843;51.320;12.340;2022-09-09T14:24:31;0.00;;;0.00;;
38037;SDS011;23843;51.320;12.340;2022-09-09T14:26:56;0.03;;;0.03;;
38037;SDS011;23843;51.320;12.340;2022-09-09T14:29:23;0.10;;;0.10;;
38037;SDS011;23843;51.320;12.340;2022-09-09T14:31:48;0.00;;;0.00;;
38037;SDS011;23843;51.320;12.340;2022-09-09T14:34:14;0.25;;;0.25;;
38037;SDS011;23843;51.320;12.340;2022-09-09T14:36:39;0.70;;;0.70;;
38037;SDS011;23843;51.320;12.340;2022-09-09T14:39:05;0.68;;;0.68;;
38037;SDS011;23843;51.320;12.340;2022-09-09T14:41:30;0.10;;;0.10;;
38037;SDS011;23843;51.320;12.340;2022-09-09T14:43:56;0.00;;;0.00;;
38037;SDS011;23843;51.320;12.340;2022-09-09T14:46:23;0.03;;;0.03;;
38037;SDS011;23843;51.320;12.340;2022-09-09T14:48:48;0.25;;;0.10;;
38037;SDS011;23843;51.320;12.340;2022-09-09T14:51:14;0.00;;;0.00;;
38037;SDS011;23843;51.320;12.340;2022-09-09T14:53:41;0.10;;;0.10;;
38037;SDS011;23843;51.320;12.340;2022-09-09T14:56:08;0.20;;;0.20;;
38037;SDS011;23843;51.320;12.340;2022-09-09T14:58:35;0.05;;;0.05;;
38037;SDS011;23843;51.320;12.340;2022-09-09T15:01:03;0.10;;;0.10;;
38037;SDS011;23843;51.320;12.340;2022-09-09T15:03:31;0.10;;;0.10;;
38037;SDS011;23843;51.320;12.340;2022-09-09T15:05:57;0.10;;;0.10;;
38037;SDS011;23843;51.320;12.340;2022-09-09T15:08:23;0.10;;;0.10;;
38037;SDS011;23843;51.320;12.340;2022-09-09T15:10:48;0.10;;;0.10;;
38037;SDS011;23843;51.320;12.340;2022-09-09T15:13:14;0.10;;;0.10;;
38037;SDS011;23843;51.320;12.340;2022-09-09T15:15:39;0.20;;;0.20;;
38037;SDS011;23843;51.320;12.340;2022-09-09T15:18:05;0.10;;;0.10;;
38037;SDS011;23843;51.320;12.340;2022-09-09T15:20:31;0.60;;;0.60;;
38037;SDS011;23843;51.320;12.340;2022-09-09T15:22:57;0.10;;;0.10;;
38037;SDS011;23843;51.320;12.340;2022-09-09T15:25:22;0.68;;;0.68;;
38037;SDS011;23843;51.320;12.340;2022-09-09T15:27:47;0.10;;;0.10;;
38037;SDS011;23843;51.320;12.340;2022-09-09T15:30:13;0.10;;;0.10;;
38037;SDS011;23843;51.320;12.340;2022-09-09T15:32:38;0.60;;;0.60;;
38037;SDS011;23843;51.320;12.340;2022-09-09T15:35:04;0.30;;;0.20;;
38037;SDS011;23843;51.320;12.340;2022-09-09T15:37:31;0.22;;;0.17;;
38037;SDS011;23843;51.320;12.340;2022-09-09T15:39:57;0.22;;;0.22;;
38037;SDS011;23843;51.320;12.340;2022-09-09T15:42:22;1.02;;;0.52;;
38037;SDS011;23843;51.320;12.340;2022-09-09T15:44:47;0.68;;;0.68;;
38037;SDS011;23843;51.320;12.340;2022-09-09T15:47:13;0.32;;;0.22;;
38037;SDS011;23843;51.320;12.340;2022-09-09T15:49:38;0.20;;;0.20;;
38037;SDS011;23843;51.320;12.340;2022-09-09T15:52:04;0.20;;;0.20;;
38037;SDS011;23843;51.320;12.340;2022-09-09T15:54:32;0.10;;;0.10;;
38037;SDS011;23843;51.320;12.340;2022-09-09T15:56:59;0.10;;;0.10;;
38037;SDS011;23843;51.320;12.340;2022-09-09T15:59:26;0.10;;;0.10;;
38037;SDS011;23843;51.320;12.340;2022-09-09T16:01:53;0.10;;;0.10;;
38037;SDS011;23843;51.320;12.340;2022-09-09T16:04:19;0.15;;;0.10;;
38037;SDS011;23843;51.320;12.340;2022-09-09T16:06:45;0.10;;;0.10;;
38037;SDS011;23843;51.320;12.340;2022-09-09T16:09:11;0.20;;;0.10;;
38037;SDS011;23843;51.320;12.340;2022-09-09T16:11:38;0.47;;;0.13;;
38037;SDS011;23843;51.320;12.340;2022-09-09T16:14:04;0.10;;;0.10;;
38037;SDS011;23843;51.320;12.340;2022-09-09T16:16:29;0.63;;;0.20;;
38037;SDS011;23843;51.320;12.340;2022-09-09T16:18:55;0.32;;;0.32;;
38037;SDS011;23843;51.320;12.340;2022-09-09T16:21:23;0.10;;;0.10;;
38037;SDS011;23843;51.320;12.340;2022-09-09T16:23:50;0.25;;;0.25;;
38037;SDS011;23843;51.320;12.340;2022-09-09T16:26:16;0.05;;;0.05;;
38037;SDS011;23843;51.320;12.340;2022-09-09T16:28:44;0.25;;;0.17;;
38037;SDS011;23843;51.320;12.340;2022-09-09T16:31:10;0.22;;;0.10;;
38037;SDS011;23843;51.320;12.340;2022-09-09T16:33:38;0.22;;;0.22;;
38037;SDS011;23843;51.320;12.340;2022-09-09T16:36:07;0.10;;;0.10;;
38037;SDS011;23843;51.320;12.340;2022-09-09T16:38:33;0.20;;;0.20;;
38037;SDS011;23843;51.320;12.340;2022-09-09T16:40:59;0.25;;;0.20;;
38037;SDS011;23843;51.320;12.340;2022-09-09T16:43:24;0.10;;;0.10;;
38037;SDS011;23843;51.320;12.340;2022-09-09T16:45:51;0.10;;;0.10;;
38037;SDS011;23843;51.320;12.340;2022-09-09T16:48:16;0.47;;;0.47;;
38037;SDS011;23843;51.320;12.340;2022-09-09T16:50:42;0.28;;;0.20;;
38037;SDS011;23843;51.320;12.340;2022-09-09T16:53:07;0.10;;;0.10;;
38037;SDS011;23843;51.320;12.340;2022-09-09T16:55:32;0.00;;;0.00;;
38037;SDS011;23843;51.320;12.340;2022-09-09T16:57:58;0.03;;;0.00;;
38037;SDS011;23843;51.320;12.340;2022-09-09T17:00:23;0.10;;;0.10;;
38037;SDS011;23843;51.320;12.340;2022-09-09T17:02:50;0.00;;;0.00;;
38037;SDS011;23843;51.320;12.340;2022-09-09T17:05:15;0.10;;;0.03;;
38037;SDS011;23843;51.320;12.340;2022-09-09T17:07:41;0.03;;;0.03;;
38037;SDS011;23843;51.320;12.340;2022-09-09T17:10:07;0.25;;;0.10;;
38037;SDS011;23843;51.320;12.340;2022-09-09T17:12:32;0.10;;;0.10;;
38037;SDS011;23843;51.320;12.340;2022-09-09T17:14:58;0.00;;;0.00;;
38037;SDS011;23843;51.320;12.340;2022-09-09T17:17:23;0.10;;;0.10;;
38037;SDS011;23843;51.320;12.340;2022-09-09T17:19:50;0.10;;;0.10;;
38037;SDS011;23843;51.320;12.340;2022-09-09T17:22:15;0.10;;;0.10;;
38037;SDS011;23843;51.320;12.340;2022-09-09T17:24:41;0.08;;;0.08;;
38037;SDS011;23843;51.320;12.340;2022-09-09T17:27:06;0.10;;;0.10;;
38037;SDS011;23843;51.320;12.340;2022-09-09T17:29:31;0.10;;;0.10;;
38037;SDS011;23843;51.320;12.340;2022-09-09T17:31:57;0.10;;;0.10;;
38037;SDS011;23843;51.320;12.340;2022-09-09T17:34:22;0.10;;;0.10;;
38037;SDS011;23843;51.320;12.340;2022-09-09T17:36:49;0.10;;;0.10;;
38037;SDS011;23843;51.320;12.340;2022-09-09T17:39:14;0.03;;;0.03;;
38037;SDS011;23843;51.320;12.340;2022-09-09T17:41:40;0.10;;;0.10;;
38037;SDS011;23843;51.320;12.340;2022-09-09T17:44:06;0.17;;;0.17;;
38037;SDS011;23843;51.320;12.340;2022-09-09T17:46:33;0.00;;;0.00;;
38037;SDS011;23843;51.320;12.340;2022-09-09T17:49:00;0.00;;;0.00;;
38037;SDS011;23843;51.320;12.340;2022-09-09T17:51:28;0.00;;;0.00;;
38037;SDS011;23843;51.320;12.340;2022-09-09T17:53:57;0.10;;;0.10;;
38037;SDS011;23843;51.320;12.340;2022-09-09T17:56:24;0.10;;;0.10;;
38037;SDS011;23843;51.320;12.340;2022-09-09T17:58:50;0.00;;;0.00;;
38037;SDS011;23843;51.320;12.340;2022-09-09T18:01:18;0.00;;;0.00;;
38037;SDS011;23843;51.320;12.340;2022-09-09T18:03:45;0.00;;;0.00;;
38037;SDS011;23843;51.320;12.340;2022-09-09T18:06:13;0.10;;;0.10;;
38037;SDS011;23843;51.320;12.340;2022-09-09T18:08:41;0.00;;;0.00;;
38037;SDS011;23843;51.320;12.340;2022-09-09T18:11:08;0.10;;;0.10;;
38037;SDS011;23843;51.320;12.340;2022-09-09T18:13:34;0.10;;;0.10;;
38037;SDS011;23843;51.320;12.340;2022-09-09T18:16:00;0.10;;;0.10;;
38037;SDS011;23843;51.320;12.340;2022-09-09T18:18:26;0.60;;;0.60;;
38037;SDS011;23843;51.320;12.340;2022-09-09T18:20:56;0.10;;;0.10;;
38037;SDS011;23843;51.320;12.340;2022-09-09T18:23:23;0.10;;;0.10;;
38037;SDS011;23843;51.320;12.340;2022-09-09T18:25:48;0.70;;;0.70;;
38037;SDS011;23843;51.320;12.340;2022-09-09T18:28:15;0.30;;;0.30;;
38037;SDS011;23843;51.320;12.340;2022-09-09T18:30:41;0.20;;;0.20;;
38037;SDS011;23843;51.320;12.340;2022-09-09T18:33:06;0.10;;;0.10;;
38037;SDS011;23843;51.320;12.340;2022-09-09T18:35:34;0.20;;;0.20;;
38037;SDS011;23843;51.320;12.340;2022-09-09T18:38:00;0.20;;;0.20;;
38037;SDS011;23843;51.320;12.340;2022-09-09T18:40:25;0.30;;;0.30;;
38037;SDS011;23843;51.320;12.340;2022-09-09T18:42:50;0.20;;;0.20;;
38037;SDS011;23843;51.320;12.340;2022-09-09T18:45:17;0.28;;;0.20;;
38037;SDS011;23843;51.320;12.340;2022-09-09T18:47:43;0.60;;;0.60;;
38037;SDS011;23843;51.320;12.340;2022-09-09T18:50:08;0.47;;;0.47;;
38037;SDS011;23843;51.320;12.340;2022-09-09T18:52:33;0.20;;;0.20;;
38037;SDS011;23843;51.320;12.340;2022-09-09T18:54:59;0.50;;;0.50;;
38037;SDS011;23843;51.320;12.340;2022-09-09T18:57:24;0.20;;;0.20;;
38037;SDS011;23843;51.320;12.340;2022-09-09T18:59:50;0.28;;;0.28;;
38037;SDS011;23843;51.320;12.340;2022-09-09T19:02:18;0.10;;;0.10;;
38037;SDS011;23843;51.320;12.340;2022-09-09T19:04:43;0.20;;;0.20;;
38037;SDS011;23843;51.320;12.340;2022-09-09T19:07:08;0.10;;;0.10;;
38037;SDS011;23843;51.320;12.340;2022-09-09T19:09:34;0.30;;;0.10;;
38037;SDS011;23843;51.320;12.340;2022-09-09T19:11:59;0.10;;;0.10;;
38037;SDS011;23843;51.320;12.340;2022-09-09T19:14:25;0.20;;;0.15;;